Anthony, Florida
Current Conditions -  °F | °C
As of 2:15 AM on Sunday 23 Nov 2014 (Local Time) from KOCF Reporting Station
Broken Clouds Broken Clouds  
Wind Chill: 70°   Ceiling: 1800
Heat Index: 70°   Visibility: 10mi
Dew Point: 64°   Wind: 5mph
Humidity: 83%   Direction: 130°SE
Pressure: 30.05"   Gusts: NA
Location:  29.29°N, 82.11°W
Report Text: KOCF 230715Z AUTO 13004KT 10SM BKN018 21/18 A3005 RMK AO1
Loading
Personal Weather Stations






























Interactive Weather Map New forecast layout! Learn more

10-Day Weather Forecast

Advertisements
Track Severe Weather on mobile